sensor_id;sensor_type;location;lat;lon;timestamp;pressure;altitude;pressure_sealevel;temperature;humidity
74474;BME280;62922;-6.168;106.796;2022-12-16T00:01:12;100738.41;;;31.63;51.71
74474;BME280;62922;-6.168;106.796;2022-12-16T00:03:39;100741.72;;;31.65;52.12
74474;BME280;62922;-6.168;106.796;2022-12-16T00:06:07;100731.63;;;31.55;52.10
74474;BME280;62922;-6.168;106.796;2022-12-16T00:08:36;100646.94;;;31.06;51.56
74474;BME280;62922;-6.168;106.796;2022-12-16T00:11:03;100691.16;;;31.22;51.89
74474;BME280;62922;-6.168;106.796;2022-12-16T00:13:31;100694.06;;;31.34;52.08
74474;BME280;62922;-6.168;106.796;2022-12-16T00:15:58;100719.09;;;31.44;52.52
74474;BME280;62922;-6.168;106.796;2022-12-16T00:18:25;100711.81;;;31.35;52.22
74474;BME280;62922;-6.168;106.796;2022-12-16T00:20:53;100709.00;;;31.35;52.35
74474;BME280;62922;-6.168;106.796;2022-12-16T00:23:20;100748.19;;;31.66;52.29
74474;BME280;62922;-6.168;106.796;2022-12-16T00:25:47;100745.44;;;31.57;52.47
74474;BME280;62922;-6.168;106.796;2022-12-16T00:28:15;100757.50;;;31.57;52.30
74474;BME280;62922;-6.168;106.796;2022-12-16T00:30:42;100720.91;;;31.49;52.67
74474;BME280;62922;-6.168;106.796;2022-12-16T00:33:09;100704.50;;;31.34;52.31
74474;BME280;62922;-6.168;106.796;2022-12-16T00:35:38;100761.25;;;31.70;52.14
74474;BME280;62922;-6.168;106.796;2022-12-16T00:38:04;100746.72;;;31.59;52.24
74474;BME280;62922;-6.168;106.796;2022-12-16T00:40:30;100744.75;;;31.60;52.13
74474;BME280;62922;-6.168;106.796;2022-12-16T00:42:56;100715.94;;;31.46;52.28
74474;BME280;62922;-6.168;106.796;2022-12-16T00:45:23;100756.31;;;31.67;52.85
74474;BME280;62922;-6.168;106.796;2022-12-16T00:47:49;100706.84;;;31.32;52.38
74474;BME280;62922;-6.168;106.796;2022-12-16T00:50:16;100720.94;;;31.40;52.60
74474;BME280;62922;-6.168;106.796;2022-12-16T00:52:43;100710.34;;;31.29;52.61
74474;BME280;62922;-6.168;106.796;2022-12-16T00:55:10;100782.34;;;31.73;52.75
74474;BME280;62922;-6.168;106.796;2022-12-16T00:57:37;100761.38;;;31.53;52.18
74474;BME280;62922;-6.168;106.796;2022-12-16T01:00:04;100799.97;;;31.70;52.40
74474;BME280;62922;-6.168;106.796;2022-12-16T01:02:31;100715.50;;;31.27;52.82
74474;BME280;62922;-6.168;106.796;2022-12-16T01:04:57;100792.78;;;31.72;52.66
74474;BME280;62922;-6.168;106.796;2022-12-16T01:07:24;100806.53;;;31.82;52.37
74474;BME280;62922;-6.168;106.796;2022-12-16T01:09:50;100758.06;;;31.51;52.53
74474;BME280;62922;-6.168;106.796;2022-12-16T01:12:17;100808.38;;;31.78;52.50
74474;BME280;62922;-6.168;106.796;2022-12-16T01:14:43;100789.81;;;31.69;53.14
74474;BME280;62922;-6.168;106.796;2022-12-16T01:17:09;100795.63;;;31.72;52.95
74474;BME280;62922;-6.168;106.796;2022-12-16T01:19:36;100799.72;;;31.83;52.80
74474;BME280;62922;-6.168;106.796;2022-12-16T01:22:02;100778.66;;;31.81;52.34
74474;BME280;62922;-6.168;106.796;2022-12-16T01:24:28;100792.22;;;31.87;52.28
74474;BME280;62922;-6.168;106.796;2022-12-16T01:26:57;100796.22;;;31.86;52.57
74474;BME280;62922;-6.168;106.796;2022-12-16T01:29:24;100754.53;;;31.63;52.47
74474;BME280;62922;-6.168;106.796;2022-12-16T01:31:50;100812.16;;;31.91;52.63
74474;BME280;62922;-6.168;106.796;2022-12-16T01:34:16;100767.09;;;31.65;52.41
74474;BME280;62922;-6.168;106.796;2022-12-16T01:36:43;100763.47;;;31.65;52.53
74474;BME280;62922;-6.168;106.796;2022-12-16T01:39:10;100782.78;;;31.92;52.76
74474;BME280;62922;-6.168;106.796;2022-12-16T01:41:37;100791.75;;;31.94;52.56
74474;BME280;62922;-6.168;106.796;2022-12-16T01:46:35;100796.34;;;31.98;52.68
74474;BME280;62922;-6.168;106.796;2022-12-16T01:49:09;100797.97;;;32.08;52.92
74474;BME280;62922;-6.168;106.796;2022-12-16T01:51:41;100711.44;;;31.53;52.40
74474;BME280;62922;-6.168;106.796;2022-12-16T01:54:29;100814.03;;;32.16;52.23
74474;BME280;62922;-6.168;106.796;2022-12-16T01:57:01;100809.31;;;32.20;52.69
74474;BME280;62922;-6.168;106.796;2022-12-16T01:59:30;100796.19;;;32.24;52.44
74474;BME280;62922;-6.168;106.796;2022-12-16T02:01:59;100799.00;;;32.24;52.39
74474;BME280;62922;-6.168;106.796;2022-12-16T02:04:25;100803.97;;;32.27;52.89
74474;BME280;62922;-6.168;106.796;2022-12-16T02:06:51;100787.84;;;32.27;52.49
74474;BME280;62922;-6.168;106.796;2022-12-16T02:09:18;100797.31;;;32.31;52.88
74474;BME280;62922;-6.168;106.796;2022-12-16T02:14:24;100764.97;;;32.20;53.01
74474;BME280;62922;-6.168;106.796;2022-12-16T02:16:59;100796.72;;;32.46;52.39
74474;BME280;62922;-6.168;106.796;2022-12-16T02:34:58;100792.38;;;32.70;52.48
74474;BME280;62922;-6.168;106.796;2022-12-16T02:37:32;100687.44;;;32.18;52.63
74474;BME280;62922;-6.168;106.796;2022-12-16T02:40:10;100686.28;;;32.19;52.00
74474;BME280;62922;-6.168;106.796;2022-12-16T02:42:46;100734.72;;;32.50;52.48
74474;BME280;62922;-6.168;106.796;2022-12-16T02:45:20;100712.72;;;32.35;52.45
74474;BME280;62922;-6.168;106.796;2022-12-16T02:47:50;100786.19;;;32.76;52.26
74474;BME280;62922;-6.168;106.796;2022-12-16T02:50:22;100722.50;;;32.37;52.11
74474;BME280;62922;-6.168;106.796;2022-12-16T02:52:53;100769.28;;;32.68;52.67
74474;BME280;62922;-6.168;106.796;2022-12-16T02:55:42;100761.63;;;32.68;52.55
74474;BME280;62922;-6.168;106.796;2022-12-16T02:58:26;100723.53;;;32.53;52.31
74474;BME280;62922;-6.168;106.796;2022-12-16T03:03:34;100696.03;;;32.63;52.52
74474;BME280;62922;-6.168;106.796;2022-12-16T03:06:03;100760.50;;;33.02;52.08
74474;BME280;62922;-6.168;106.796;2022-12-16T03:08:34;100742.59;;;32.98;52.83
74474;BME280;62922;-6.168;106.796;2022-12-16T03:11:05;100747.44;;;33.09;52.84
74474;BME280;62922;-6.168;106.796;2022-12-16T03:13:49;100717.38;;;33.05;51.92
74474;BME280;62922;-6.168;106.796;2022-12-16T03:16:19;100731.91;;;33.15;52.21
74474;BME280;62922;-6.168;106.796;2022-12-16T03:18:53;100687.91;;;32.94;52.05
74474;BME280;62922;-6.168;106.796;2022-12-16T03:21:23;100683.09;;;32.94;51.65
74474;BME280;62922;-6.168;106.796;2022-12-16T03:24:05;100630.63;;;32.73;51.44
74474;BME280;62922;-6.168;106.796;2022-12-16T03:29:05;100721.09;;;33.41;51.82
74474;BME280;62922;-6.168;106.796;2022-12-16T03:31:42;100717.06;;;33.42;51.91
74474;BME280;62922;-6.168;106.796;2022-12-16T03:34:17;100622.16;;;32.85;52.25
74474;BME280;62922;-6.168;106.796;2022-12-16T03:36:51;100728.69;;;33.49;52.38
74474;BME280;62922;-6.168;106.796;2022-12-16T03:39:21;100667.56;;;33.24;52.18
74474;BME280;62922;-6.168;106.796;2022-12-16T03:41:51;100719.50;;;33.53;52.35
74474;BME280;62922;-6.168;106.796;2022-12-16T03:44:23;100695.91;;;33.48;51.93
74474;BME280;62922;-6.168;106.796;2022-12-16T03:46:53;100706.41;;;33.60;52.05
74474;BME280;62922;-6.168;106.796;2022-12-16T03:49:21;100700.28;;;33.58;52.32
74474;BME280;62922;-6.168;106.796;2022-12-16T03:51:48;100705.09;;;33.70;51.86
74474;BME280;62922;-6.168;106.796;2022-12-16T03:54:14;100710.41;;;33.71;51.79
74474;BME280;62922;-6.168;106.796;2022-12-16T03:56:41;100681.19;;;33.55;51.68
74474;BME280;62922;-6.168;106.796;2022-12-16T03:59:07;100682.34;;;33.54;51.97
74474;BME280;62922;-6.168;106.796;2022-12-16T04:01:34;100704.16;;;33.66;52.13
74474;BME280;62922;-6.168;106.796;2022-12-16T04:04:00;100646.72;;;33.41;52.50
74474;BME280;62922;-6.168;106.796;2022-12-16T04:06:26;100695.31;;;33.67;52.58
74474;BME280;62922;-6.168;106.796;2022-12-16T04:08:53;100572.44;;;32.84;52.15
74474;BME280;62922;-6.168;106.796;2022-12-16T04:11:19;100619.03;;;33.10;52.28
74474;BME280;62922;-6.168;106.796;2022-12-16T04:13:48;100675.47;;;33.43;52.96
74474;BME280;62922;-6.168;106.796;2022-12-16T04:16:17;100635.63;;;33.12;52.60
74474;BME280;62922;-6.168;106.796;2022-12-16T04:18:46;100677.72;;;33.37;52.97
74474;BME280;62922;-6.168;106.796;2022-12-16T04:21:15;100635.75;;;33.03;52.96
74474;BME280;62922;-6.168;106.796;2022-12-16T04:23:54;100671.94;;;33.34;52.76
74474;BME280;62922;-6.168;106.796;2022-12-16T04:26:25;100672.41;;;33.36;53.45
74474;BME280;62922;-6.168;106.796;2022-12-16T04:28:51;100682.81;;;33.56;53.69
74474;BME280;62922;-6.168;106.796;2022-12-16T04:31:17;100617.00;;;33.35;53.39
74474;BME280;62922;-6.168;106.796;2022-12-16T04:33:44;100674.19;;;33.65;52.73
74474;BME280;62922;-6.168;106.796;2022-12-16T04:36:13;100626.09;;;33.28;52.83
74474;BME280;62922;-6.168;106.796;2022-12-16T04:38:42;100596.28;;;33.07;53.20
74474;BME280;62922;-6.168;106.796;2022-12-16T04:41:11;100623.63;;;33.27;53.56
74474;BME280;62922;-6.168;106.796;2022-12-16T04:43:39;100605.13;;;33.17;53.45
74474;BME280;62922;-6.168;106.796;2022-12-16T04:46:08;100613.97;;;33.40;53.83
74474;BME280;62922;-6.168;106.796;2022-12-16T04:48:37;100657.09;;;33.73;53.75
74474;BME280;62922;-6.168;106.796;2022-12-16T04:51:06;100645.06;;;33.76;53.20
74474;BME280;62922;-6.168;106.796;2022-12-16T04:53:35;100644.03;;;33.57;53.43
74474;BME280;62922;-6.168;106.796;2022-12-16T04:56:04;100606.66;;;33.27;53.64
74474;BME280;62922;-6.168;106.796;2022-12-16T04:58:33;100640.13;;;33.61;54.00
74474;BME280;62922;-6.168;106.796;2022-12-16T05:01:02;100631.38;;;33.66;53.59
74474;BME280;62922;-6.168;106.796;2022-12-16T05:03:31;100634.00;;;33.71;53.35
74474;BME280;62922;-6.168;106.796;2022-12-16T05:06:00;100511.31;;;32.91;53.93
74474;BME280;62922;-6.168;106.796;2022-12-16T05:08:29;100616.78;;;33.64;54.09
74474;BME280;62922;-6.168;106.796;2022-12-16T05:10:58;100614.75;;;33.65;53.54
74474;BME280;62922;-6.168;106.796;2022-12-16T05:13:27;100606.41;;;33.56;53.96
74474;BME280;62922;-6.168;106.796;2022-12-16T05:15:56;100591.44;;;33.68;54.08
74474;BME280;62922;-6.168;106.796;2022-12-16T05:18:27;100597.25;;;33.87;53.50
74474;BME280;62922;-6.168;106.796;2022-12-16T05:20:57;100439.47;;;33.04;53.41
74474;BME280;62922;-6.168;106.796;2022-12-16T05:23:26;100543.66;;;33.66;53.39
74474;BME280;62922;-6.168;106.796;2022-12-16T05:25:55;100588.28;;;33.85;53.35
74474;BME280;62922;-6.168;106.796;2022-12-16T05:28:24;100597.63;;;33.85;53.34
74474;BME280;62922;-6.168;106.796;2022-12-16T05:30:53;100596.69;;;33.81;53.68
74474;BME280;62922;-6.168;106.796;2022-12-16T05:33:22;100591.13;;;33.85;53.47
74474;BME280;62922;-6.168;106.796;2022-12-16T05:35:54;100596.31;;;33.83;53.34
74474;BME280;62922;-6.168;106.796;2022-12-16T05:38:23;100529.69;;;33.45;53.77
74474;BME280;62922;-6.168;106.796;2022-12-16T05:40:52;100571.94;;;33.78;53.84
74474;BME280;62922;-6.168;106.796;2022-12-16T05:43:21;100563.13;;;33.68;53.69
74474;BME280;62922;-6.168;106.796;2022-12-16T05:45:49;100567.97;;;33.67;53.71
74474;BME280;62922;-6.168;106.796;2022-12-16T05:48:18;100516.63;;;33.29;53.65
74474;BME280;62922;-6.168;106.796;2022-12-16T05:51:04;100572.78;;;33.67;54.27
74474;BME280;62922;-6.168;106.796;2022-12-16T05:53:33;100557.94;;;33.58;54.05
74474;BME280;62922;-6.168;106.796;2022-12-16T05:56:02;100565.59;;;33.57;53.77
74474;BME280;62922;-6.168;106.796;2022-12-16T05:58:31;100509.44;;;33.19;54.42
74474;BME280;62922;-6.168;106.796;2022-12-16T06:01:00;100512.16;;;33.16;54.38
74474;BME280;62922;-6.168;106.796;2022-12-16T06:03:29;100565.97;;;33.43;54.11
74474;BME280;62922;-6.168;106.796;2022-12-16T06:05:58;100472.22;;;32.93;54.29
74474;BME280;62922;-6.168;106.796;2022-12-16T06:08:27;100504.63;;;33.20;54.10
74474;BME280;62922;-6.168;106.796;2022-12-16T06:10:56;100493.31;;;33.20;54.47
74474;BME280;62922;-6.168;106.796;2022-12-16T06:13:25;100526.63;;;33.38;54.67
74474;BME280;62922;-6.168;106.796;2022-12-16T06:15:54;100487.88;;;33.27;53.92
74474;BME280;62922;-6.168;106.796;2022-12-16T06:18:23;100462.22;;;33.08;55.00
74474;BME280;62922;-6.168;106.796;2022-12-16T06:20:52;100454.22;;;32.98;55.16
74474;BME280;62922;-6.168;106.796;2022-12-16T06:23:21;100512.22;;;33.31;54.55
74474;BME280;62922;-6.168;106.796;2022-12-16T06:25:50;100441.25;;;32.97;54.50
74474;BME280;62922;-6.168;106.796;2022-12-16T06:28:19;100524.16;;;33.25;54.64
74474;BME280;62922;-6.168;106.796;2022-12-16T06:30:48;100523.59;;;33.19;54.63
74474;BME280;62922;-6.168;106.796;2022-12-16T06:33:17;100530.28;;;33.27;55.00
74474;BME280;62922;-6.168;106.796;2022-12-16T06:35:46;100516.72;;;33.20;54.90
74474;BME280;62922;-6.168;106.796;2022-12-16T06:38:15;100515.94;;;33.20;55.47
74474;BME280;62922;-6.168;106.796;2022-12-16T06:40:43;100498.84;;;33.16;55.53
74474;BME280;62922;-6.168;106.796;2022-12-16T06:43:12;100414.31;;;32.63;55.73
74474;BME280;62922;-6.168;106.796;2022-12-16T06:45:41;100489.44;;;33.12;55.47
74474;BME280;62922;-6.168;106.796;2022-12-16T06:48:10;100488.72;;;33.15;55.80
74474;BME280;62922;-6.168;106.796;2022-12-16T06:50:39;100454.19;;;32.86;55.34
74474;BME280;62922;-6.168;106.796;2022-12-16T06:53:08;100472.56;;;32.92;55.88
74474;BME280;62922;-6.168;106.796;2022-12-16T06:55:37;100481.41;;;32.90;55.52
74474;BME280;62922;-6.168;106.796;2022-12-16T06:58:06;100546.81;;;33.13;55.93
74474;BME280;62922;-6.168;106.796;2022-12-16T07:00:35;100570.72;;;33.15;54.35
74474;BME280;62922;-6.168;106.796;2022-12-16T07:03:03;100559.84;;;32.93;51.07
74474;BME280;62922;-6.168;106.796;2022-12-16T07:05:32;100546.53;;;32.70;50.75
74474;BME280;62922;-6.168;106.796;2022-12-16T07:08:01;100565.72;;;32.64;50.59
74474;BME280;62922;-6.168;106.796;2022-12-16T07:10:30;100570.41;;;32.60;51.41
74474;BME280;62922;-6.168;106.796;2022-12-16T07:12:59;100580.44;;;32.37;52.39
74474;BME280;62922;-6.168;106.796;2022-12-16T07:15:28;100522.00;;;32.05;52.70
74474;BME280;62922;-6.168;106.796;2022-12-16T07:17:57;100559.50;;;32.38;52.82
74474;BME280;62922;-6.168;106.796;2022-12-16T07:20:26;100557.47;;;32.26;53.06
74474;BME280;62922;-6.168;106.796;2022-12-16T07:22:55;100490.22;;;31.96;53.51
74474;BME280;62922;-6.168;106.796;2022-12-16T07:25:24;100481.19;;;32.02;54.00
74474;BME280;62922;-6.168;106.796;2022-12-16T07:27:53;100475.63;;;31.94;54.49
74474;BME280;62922;-6.168;106.796;2022-12-16T07:30:22;100475.00;;;31.88;54.99
74474;BME280;62922;-6.168;106.796;2022-12-16T07:32:50;100407.19;;;31.64;54.97
74474;BME280;62922;-6.168;106.796;2022-12-16T07:35:19;100494.75;;;32.21;54.76
74474;BME280;62922;-6.168;106.796;2022-12-16T07:37:48;100495.31;;;32.14;55.24
74474;BME280;62922;-6.168;106.796;2022-12-16T07:40:17;100491.22;;;32.24;54.90
74474;BME280;62922;-6.168;106.796;2022-12-16T07:42:49;100473.31;;;32.08;55.31
74474;BME280;62922;-6.168;106.796;2022-12-16T07:45:18;100481.69;;;32.16;55.50
74474;BME280;62922;-6.168;106.796;2022-12-16T07:47:47;100468.28;;;32.13;55.68
74474;BME280;62922;-6.168;106.796;2022-12-16T07:50:16;100453.19;;;32.09;55.66
74474;BME280;62922;-6.168;106.796;2022-12-16T07:52:47;100472.41;;;32.16;55.47
74474;BME280;62922;-6.168;106.796;2022-12-16T07:55:37;100471.59;;;32.27;55.41
74474;BME280;62922;-6.168;106.796;2022-12-16T07:58:07;100415.91;;;31.92;55.13
74474;BME280;62922;-6.168;106.796;2022-12-16T08:00:37;100449.59;;;32.21;55.73
74474;BME280;62922;-6.168;106.796;2022-12-16T08:03:05;100444.06;;;32.24;55.55
74474;BME280;62922;-6.168;106.796;2022-12-16T08:05:34;100403.06;;;31.94;55.55
74474;BME280;62922;-6.168;106.796;2022-12-16T08:08:03;100409.66;;;31.98;55.65
74474;BME280;62922;-6.168;106.796;2022-12-16T08:10:32;100410.00;;;31.97;54.90
74474;BME280;62922;-6.168;106.796;2022-12-16T08:13:03;100395.72;;;31.81;55.06
74474;BME280;62922;-6.168;106.796;2022-12-16T08:15:32;100460.75;;;32.17;54.59
74474;BME280;62922;-6.168;106.796;2022-12-16T08:18:01;100407.16;;;31.85;54.73
74474;BME280;62922;-6.168;106.796;2022-12-16T08:20:30;100400.78;;;31.88;54.63
74474;BME280;62922;-6.168;106.796;2022-12-16T08:22:58;100413.44;;;31.90;54.59
74474;BME280;62922;-6.168;106.796;2022-12-16T08:25:27;100405.75;;;31.91;54.44
74474;BME280;62922;-6.168;106.796;2022-12-16T08:27:57;100447.13;;;32.19;54.36
74474;BME280;62922;-6.168;106.796;2022-12-16T08:30:26;100440.28;;;32.20;53.90
74474;BME280;62922;-6.168;106.796;2022-12-16T08:32:55;100430.75;;;32.13;54.43
74474;BME280;62922;-6.168;106.796;2022-12-16T08:35:24;100396.19;;;31.83;54.49
74474;BME280;62922;-6.168;106.796;2022-12-16T08:38:00;100439.56;;;32.11;55.06
74474;BME280;62922;-6.168;106.796;2022-12-16T08:40:29;100400.66;;;31.84;55.03
74474;BME280;62922;-6.168;106.796;2022-12-16T08:42:58;100380.06;;;31.72;55.30
74474;BME280;62922;-6.168;106.796;2022-12-16T08:45:27;100324.56;;;31.31;55.23
74474;BME280;62922;-6.168;106.796;2022-12-16T08:47:56;100454.16;;;32.13;54.81
74474;BME280;62922;-6.168;106.796;2022-12-16T08:50:24;100412.84;;;31.97;54.50
74474;BME280;62922;-6.168;106.796;2022-12-16T08:52:53;100401.31;;;31.90;54.76
74474;BME280;62922;-6.168;106.796;2022-12-16T08:55:22;100448.75;;;32.20;54.43
74474;BME280;62922;-6.168;106.796;2022-12-16T08:57:55;100425.31;;;32.08;54.66
74474;BME280;62922;-6.168;106.796;2022-12-16T09:00:23;100445.44;;;32.18;54.99
74474;BME280;62922;-6.168;106.796;2022-12-16T09:03:12;100391.50;;;31.87;54.61
74474;BME280;62922;-6.168;106.796;2022-12-16T09:05:42;100438.72;;;32.11;54.58
74474;BME280;62922;-6.168;106.796;2022-12-16T09:08:11;100404.97;;;31.90;54.98
74474;BME280;62922;-6.168;106.796;2022-12-16T09:10:40;100359.25;;;31.64;54.79
74474;BME280;62922;-6.168;106.796;2022-12-16T09:13:11;100439.44;;;32.08;54.59
74474;BME280;62922;-6.168;106.796;2022-12-16T09:15:41;100409.78;;;31.90;54.18
74474;BME280;62922;-6.168;106.796;2022-12-16T09:18:09;100354.03;;;31.54;54.16
74474;BME280;62922;-6.168;106.796;2022-12-16T09:20:38;100477.34;;;32.19;54.21
74474;BME280;62922;-6.168;106.796;2022-12-16T09:23:07;100452.13;;;32.02;53.83
74474;BME280;62922;-6.168;106.796;2022-12-16T09:25:36;100465.88;;;32.03;54.34
74474;BME280;62922;-6.168;106.796;2022-12-16T09:28:05;100477.28;;;32.07;54.47
74474;BME280;62922;-6.168;106.796;2022-12-16T09:30:34;100435.69;;;31.83;54.79
74474;BME280;62922;-6.168;106.796;2022-12-16T09:33:03;100424.50;;;31.75;54.36
74474;BME280;62922;-6.168;106.796;2022-12-16T09:35:32;100426.91;;;31.85;54.90
74474;BME280;62922;-6.168;106.796;2022-12-16T09:38:01;100481.06;;;32.11;54.89
74474;BME280;62922;-6.168;106.796;2022-12-16T09:40:30;100485.69;;;32.15;54.74
74474;BME280;62922;-6.168;106.796;2022-12-16T09:43:09;100465.88;;;32.03;54.86
74474;BME280;62922;-6.168;106.796;2022-12-16T09:48:28;100482.25;;;32.10;55.29
74474;BME280;62922;-6.168;106.796;2022-12-16T09:51:02;100472.09;;;31.97;55.71
74474;BME280;62922;-6.168;106.796;2022-12-16T09:53:35;100424.97;;;31.65;56.56
74474;BME280;62922;-6.168;106.796;2022-12-16T09:56:15;100465.09;;;31.82;56.36
74474;BME280;62922;-6.168;106.796;2022-12-16T09:58:55;100518.97;;;32.10;56.47
74474;BME280;62922;-6.168;106.796;2022-12-16T10:01:26;100478.50;;;31.85;56.30
74474;BME280;62922;-6.168;106.796;2022-12-16T10:03:55;100527.06;;;32.11;56.45
74474;BME280;62922;-6.168;106.796;2022-12-16T10:09:12;100503.22;;;31.88;56.43
74474;BME280;62922;-6.168;106.796;2022-12-16T10:14:24;100542.06;;;31.91;57.84
74474;BME280;62922;-6.168;106.796;2022-12-16T10:27:14;100568.94;;;31.89;57.83
74474;BME280;62922;-6.168;106.796;2022-12-16T10:29:44;100549.88;;;31.65;57.86
74474;BME280;62922;-6.168;106.796;2022-12-16T10:32:18;100580.09;;;31.85;57.83
74474;BME280;62922;-6.168;106.796;2022-12-16T10:34:54;100567.22;;;31.76;58.24
74474;BME280;62922;-6.168;106.796;2022-12-16T10:37:35;100574.53;;;31.77;58.67
74474;BME280;62922;-6.168;106.796;2022-12-16T10:40:11;100606.81;;;31.88;58.46
74474;BME280;62922;-6.168;106.796;2022-12-16T10:47:49;100592.28;;;31.77;58.20
74474;BME280;62922;-6.168;106.796;2022-12-16T10:50:18;100578.78;;;31.62;58.03
74474;BME280;62922;-6.168;106.796;2022-12-16T10:55:26;100573.69;;;31.55;58.65
74474;BME280;62922;-6.168;106.796;2022-12-16T11:05:38;100620.91;;;31.88;58.53
74474;BME280;62922;-6.168;106.796;2022-12-16T11:08:24;100582.28;;;31.80;59.18
74474;BME280;62922;-6.168;106.796;2022-12-16T11:10:53;100580.91;;;31.86;58.75
74474;BME280;62922;-6.168;106.796;2022-12-16T11:16:16;100632.41;;;32.03;58.75
74474;BME280;62922;-6.168;106.796;2022-12-16T11:18:49;100634.22;;;32.08;59.54
74474;BME280;62922;-6.168;106.796;2022-12-16T11:21:20;100651.47;;;32.27;59.48
74474;BME280;62922;-6.168;106.796;2022-12-16T11:26:34;100603.78;;;32.13;61.35
74474;BME280;62922;-6.168;106.796;2022-12-16T11:31:37;100657.25;;;32.51;62.46
74474;BME280;62922;-6.168;106.796;2022-12-16T11:34:23;100564.34;;;32.05;62.23
74474;BME280;62922;-6.168;106.796;2022-12-16T11:36:52;100624.94;;;32.40;61.25
74474;BME280;62922;-6.168;106.796;2022-12-16T11:39:22;100608.31;;;32.26;60.11
74474;BME280;62922;-6.168;106.796;2022-12-16T11:41:56;100617.44;;;32.23;59.98
74474;BME280;62922;-6.168;106.796;2022-12-16T11:46:58;100687.59;;;32.42;60.06
74474;BME280;62922;-6.168;106.796;2022-12-16T11:49:30;100640.28;;;31.98;60.29
74474;BME280;62922;-6.168;106.796;2022-12-16T11:52:05;100641.38;;;31.85;60.52
74474;BME280;62922;-6.168;106.796;2022-12-16T11:54:39;100656.59;;;31.92;60.46
74474;BME280;62922;-6.168;106.796;2022-12-16T11:57:22;100706.44;;;32.09;60.27
74474;BME280;62922;-6.168;106.796;2022-12-16T11:59:57;100708.09;;;32.10;60.22
74474;BME280;62922;-6.168;106.796;2022-12-16T12:05:00;100677.88;;;31.81;60.09
74474;BME280;62922;-6.168;106.796;2022-12-16T12:10:13;100614.13;;;31.39;60.29
74474;BME280;62922;-6.168;106.796;2022-12-16T12:12:53;100616.47;;;31.37;60.72
74474;BME280;62922;-6.168;106.796;2022-12-16T12:15:31;100722.13;;;31.98;60.60
74474;BME280;62922;-6.168;106.796;2022-12-16T12:23:10;100657.00;;;31.53;60.78
74474;BME280;62922;-6.168;106.796;2022-12-16T12:33:49;100632.88;;;31.35;60.00
74474;BME280;62922;-6.168;106.796;2022-12-16T12:39:01;100682.03;;;31.84;61.08
74474;BME280;62922;-6.168;106.796;2022-12-16T12:41:56;100730.41;;;32.23;60.97
74474;BME280;62922;-6.168;106.796;2022-12-16T12:47:22;100727.09;;;32.01;60.36
74474;BME280;62922;-6.168;106.796;2022-12-16T12:50:21;100735.91;;;31.99;60.95
74474;BME280;62922;-6.168;106.796;2022-12-16T12:53:11;100700.25;;;31.66;61.29
74474;BME280;62922;-6.168;106.796;2022-12-16T12:58:23;100743.28;;;31.83;60.83
74474;BME280;62922;-6.168;106.796;2022-12-16T13:00:54;100735.88;;;31.70;60.51
74474;BME280;62922;-6.168;106.796;2022-12-16T13:05:59;100742.97;;;31.76;60.52
74474;BME280;62922;-6.168;106.796;2022-12-16T13:11:17;100698.25;;;31.37;59.90
74474;BME280;62922;-6.168;106.796;2022-12-16T13:13:46;100705.16;;;31.48;60.00
74474;BME280;62922;-6.168;106.796;2022-12-16T13:26:59;100779.38;;;31.69;59.84
74474;BME280;62922;-6.168;106.796;2022-12-16T13:30:15;100774.28;;;31.63;60.44
74474;BME280;62922;-6.168;106.796;2022-12-16T13:32:57;100788.34;;;31.71;60.14
74474;BME280;62922;-6.168;106.796;2022-12-16T13:35:27;100729.41;;;31.32;60.19
74474;BME280;62922;-6.168;106.796;2022-12-16T13:37:57;100802.78;;;31.70;60.28
74474;BME280;62922;-6.168;106.796;2022-12-16T13:40:27;100761.91;;;31.38;60.13
74474;BME280;62922;-6.168;106.796;2022-12-16T13:42:55;100777.50;;;31.44;60.63
74474;BME280;62922;-6.168;106.796;2022-12-16T13:47:59;100770.38;;;31.38;61.25
74474;BME280;62922;-6.168;106.796;2022-12-16T13:53:03;100776.84;;;31.38;60.56
74474;BME280;62922;-6.168;106.796;2022-12-16T13:55:38;100826.34;;;31.65;60.33
74474;BME280;62922;-6.168;106.796;2022-12-16T13:59:10;100721.56;;;31.00;60.07
74474;BME280;62922;-6.168;106.796;2022-12-16T14:01:11;100827.88;;;31.63;60.31
74474;BME280;62922;-6.168;106.796;2022-12-16T14:03:47;100785.47;;;31.33;60.79
74474;BME280;62922;-6.168;106.796;2022-12-16T14:06:20;100837.16;;;31.63;60.51
74474;BME280;62922;-6.168;106.796;2022-12-16T14:08:50;100794.59;;;31.30;60.59
74474;BME280;62922;-6.168;106.796;2022-12-16T14:11:28;100839.81;;;31.59;60.48
74474;BME280;62922;-6.168;106.796;2022-12-16T14:16:57;100843.31;;;31.56;60.49
74474;BME280;62922;-6.168;106.796;2022-12-16T14:24:37;100823.44;;;31.53;60.15
74474;BME280;62922;-6.168;106.796;2022-12-16T14:27:14;100799.88;;;31.32;60.34
74474;BME280;62922;-6.168;106.796;2022-12-16T14:29:43;100836.00;;;31.55;60.62
74474;BME280;62922;-6.168;106.796;2022-12-16T14:32:17;100829.22;;;31.56;60.40
74474;BME280;62922;-6.168;106.796;2022-12-16T14:34:46;100808.72;;;31.39;60.00
74474;BME280;62922;-6.168;106.796;2022-12-16T14:39:49;100729.56;;;30.89;60.24
74474;BME280;62922;-6.168;106.796;2022-12-16T14:42:25;100830.22;;;31.52;60.18
74474;BME280;62922;-6.168;106.796;2022-12-16T14:44:54;100738.81;;;30.98;60.83
74474;BME280;62922;-6.168;106.796;2022-12-16T14:47:24;100806.03;;;31.34;60.27
74474;BME280;62922;-6.168;106.796;2022-12-16T14:49:54;100775.38;;;31.15;60.25
74474;BME280;62922;-6.168;106.796;2022-12-16T14:52:25;100759.00;;;31.09;60.31
74474;BME280;62922;-6.168;106.796;2022-12-16T14:54:54;100760.63;;;31.10;60.23
74474;BME280;62922;-6.168;106.796;2022-12-16T14:57:27;100766.63;;;31.08;60.32